createdAt,value
2022-11-10T00:01:05.581Z,30.60
2022-11-10T00:03:32.493Z,32.83
2022-11-10T00:05:59.188Z,29.33
2022-11-10T00:08:25.816Z,31.15
2022-11-10T00:10:58.318Z,34.90
2022-11-10T00:13:33.874Z,29.33
2022-11-10T00:16:23.826Z,31.98
2022-11-10T00:18:50.884Z,29.90
2022-11-10T00:21:18.308Z,27.75
2022-11-10T00:23:46.650Z,32.47
2022-11-10T00:26:18.886Z,35.10
2022-11-10T00:28:45.855Z,35.72
2022-11-10T00:31:13.337Z,33.75
2022-11-10T00:33:42.767Z,34.42
2022-11-10T00:36:09.648Z,32.42
2022-11-10T00:38:36.383Z,34.60
2022-11-10T00:41:03.243Z,32.20
2022-11-10T00:43:30.348Z,33.58
2022-11-10T00:45:57.595Z,28.52
2022-11-10T00:48:24.604Z,28.65
2022-11-10T00:50:51.520Z,29.20
2022-11-10T00:53:18.387Z,25.58
2022-11-10T00:55:45.207Z,29.95
2022-11-10T00:58:11.952Z,27.85
2022-11-10T01:00:38.591Z,24.63
2022-11-10T01:03:05.459Z,22.63
2022-11-10T01:05:36.122Z,26.35
2022-11-10T01:08:02.763Z,26.08
2022-11-10T01:10:29.415Z,23.88
2022-11-10T01:12:56.167Z,27.92
2022-11-10T01:15:27.256Z,25.83
2022-11-10T01:17:55.468Z,32.08
2022-11-10T01:20:22.934Z,24.75
2022-11-10T01:22:49.633Z,31.80
2022-11-10T01:25:16.466Z,27.88
2022-11-10T01:27:43.136Z,25.60
2022-11-10T01:30:10.176Z,25.25
2022-11-10T01:32:36.812Z,31.42
2022-11-10T01:35:03.631Z,26.50
2022-11-10T01:37:30.330Z,28.98
2022-11-10T01:39:57.075Z,28.77
2022-11-10T01:42:30.360Z,32.28
2022-11-10T01:45:21.962Z,28.40
2022-11-10T01:48:00.711Z,25.95
2022-11-10T01:50:30.152Z,33.13
2022-11-10T01:53:00.388Z,24.30
2022-11-10T01:55:27.519Z,35.85
2022-11-10T01:57:54.715Z,29.08
2022-11-10T02:00:22.093Z,27.60
2022-11-10T02:03:02.468Z,27.80
2022-11-10T02:05:29.372Z,26.58
2022-11-10T02:07:56.987Z,27.58
2022-11-10T02:10:23.615Z,31.77
2022-11-10T02:12:50.437Z,30.42
2022-11-10T02:15:18.021Z,31.55
2022-11-10T02:17:47.173Z,34.55
2022-11-10T02:20:16.384Z,35.58
2022-11-10T02:22:43.036Z,34.95
2022-11-10T02:25:10.009Z,34.72
2022-11-10T02:27:36.754Z,32.05
2022-11-10T02:30:04.255Z,29.05
2022-11-10T02:32:30.877Z,30.40
2022-11-10T02:34:57.495Z,29.58
2022-11-10T02:37:24.173Z,36.78
2022-11-10T02:39:50.879Z,35.50
2022-11-10T02:42:17.488Z,33.33
2022-11-10T02:44:44.155Z,28.30
2022-11-10T02:47:10.818Z,31.20
2022-11-10T02:49:37.474Z,28.10
2022-11-10T02:52:04.202Z,29.98
2022-11-10T02:54:30.874Z,29.65
2022-11-10T02:56:57.509Z,28.67
2022-11-10T02:59:24.175Z,31.45
2022-11-10T03:01:50.799Z,29.90
2022-11-10T03:04:17.487Z,29.60
2022-11-10T03:06:44.131Z,30.85
2022-11-10T03:09:11.480Z,33.20
2022-11-10T03:11:38.087Z,26.80
2022-11-10T03:14:04.786Z,31.10
2022-11-10T03:16:31.454Z,28.67
2022-11-10T03:18:58.063Z,29.27
2022-11-10T03:21:24.708Z,33.55
2022-11-10T03:23:51.380Z,34.80
2022-11-10T03:26:18.056Z,35.92
2022-11-10T03:28:44.669Z,33.67
2022-11-10T03:31:11.315Z,32.83
2022-11-10T03:33:37.923Z,29.25
2022-11-10T03:36:04.764Z,32.78
2022-11-10T03:38:31.379Z,30.55
2022-11-10T03:41:18.220Z,30.75
2022-11-10T03:43:44.611Z,30.52
2022-11-10T03:46:11.355Z,31.48
2022-11-10T03:48:37.954Z,32.47
2022-11-10T03:51:04.602Z,28.75
2022-11-10T03:53:31.206Z,25.23
2022-11-10T03:56:01.528Z,27.38
2022-11-10T03:58:28.247Z,30.50
2022-11-10T04:00:55.299Z,28.98
2022-11-10T04:03:22.851Z,29.02
2022-11-10T04:06:08.278Z,30.80
2022-11-10T04:08:53.861Z,31.88
2022-11-10T04:11:39.593Z,31.92
2022-11-10T04:14:25.119Z,34.38
2022-11-10T04:16:51.784Z,39.75
2022-11-10T04:19:18.523Z,37.55
2022-11-10T04:21:45.264Z,34.85
2022-11-10T04:24:12.157Z,33.30
2022-11-10T04:26:40.519Z,32.05
2022-11-10T04:29:08.870Z,38.78
2022-11-10T04:31:37.579Z,43.42
2022-11-10T04:34:05.523Z,41.92
2022-11-10T04:36:35.222Z,38.30
2022-11-10T04:39:02.298Z,39.28
2022-11-10T04:41:32.520Z,45.28
2022-11-10T04:43:59.753Z,39.60
2022-11-10T04:46:40.338Z,38.13
2022-11-10T04:49:07.543Z,37.17
2022-11-10T04:51:36.978Z,47.75
2022-11-10T04:54:05.210Z,60.80
2022-11-10T04:56:31.945Z,139.02
2022-11-10T04:58:58.565Z,68.45
2022-11-10T05:01:27.287Z,68.68
2022-11-10T05:03:54.693Z,55.90
2022-11-10T05:06:21.750Z,61.38
2022-11-10T05:08:48.417Z,39.05
2022-11-10T05:11:15.735Z,33.88
2022-11-10T05:13:43.378Z,39.20
2022-11-10T05:16:10.771Z,45.42
2022-11-10T05:18:37.567Z,38.88
2022-11-10T05:21:04.395Z,48.90
2022-11-10T05:23:40.596Z,62.42
2022-11-10T05:26:12.476Z,38.75
2022-11-10T05:28:40.660Z,37.75
2022-11-10T05:31:07.875Z,44.03
2022-11-10T05:33:35.085Z,48.03
2022-11-10T05:36:01.953Z,54.38
2022-11-10T05:38:28.679Z,44.33
2022-11-10T05:40:55.388Z,53.67
2022-11-10T05:43:22.576Z,63.58
2022-11-10T05:45:49.528Z,49.42
2022-11-10T05:48:16.191Z,43.38
2022-11-10T05:50:43.919Z,53.35
2022-11-10T05:53:10.582Z,47.40
2022-11-10T05:55:37.275Z,46.15
2022-11-10T05:58:04.154Z,46.78
2022-11-10T06:00:31.608Z,49.38
2022-11-10T06:03:05.700Z,45.45
2022-11-10T06:05:34.809Z,44.20
2022-11-10T06:08:02.955Z,37.45
2022-11-10T06:10:29.712Z,37.42
2022-11-10T06:12:56.375Z,39.20
2022-11-10T06:15:23.777Z,30.02
2022-11-10T06:17:51.053Z,36.80
2022-11-10T06:20:18.260Z,31.08
2022-11-10T06:22:46.716Z,32.20
2022-11-10T06:25:13.342Z,33.08
2022-11-10T06:27:43.929Z,37.05
2022-11-10T06:30:11.318Z,31.83
2022-11-10T06:32:38.179Z,28.13
2022-11-10T06:35:05.119Z,27.67
2022-11-10T06:37:31.814Z,33.85
2022-11-10T06:39:58.432Z,29.15
2022-11-10T06:42:25.096Z,24.42
2022-11-10T06:44:51.711Z,30.60
2022-11-10T06:47:18.390Z,29.90
2022-11-10T06:49:45.040Z,28.50
2022-11-10T06:52:11.719Z,36.15
2022-11-10T06:54:38.455Z,33.50
2022-11-10T06:57:05.099Z,32.47
2022-11-10T06:59:31.770Z,39.00
2022-11-10T07:01:58.428Z,39.15
2022-11-10T07:04:25.059Z,41.85
2022-11-10T07:06:52.010Z,36.13
2022-11-10T07:09:18.728Z,43.75
2022-11-10T07:11:45.411Z,45.22
2022-11-10T07:14:12.025Z,60.30
2022-11-10T07:16:38.691Z,45.28
2022-11-10T07:19:05.372Z,44.30
2022-11-10T07:21:32.077Z,49.08
2022-11-10T07:23:58.736Z,73.10
2022-11-10T07:26:25.412Z,64.90
2022-11-10T07:28:52.073Z,66.82
2022-11-10T07:31:18.728Z,74.28
2022-11-10T07:33:53.290Z,63.38
2022-11-10T07:36:21.630Z,69.28
2022-11-10T07:38:48.256Z,69.82
2022-11-10T07:41:14.915Z,61.95
2022-11-10T07:43:41.546Z,65.43
2022-11-10T07:46:09.848Z,65.72
2022-11-10T07:48:36.731Z,66.45
2022-11-10T07:51:03.526Z,64.00
2022-11-10T07:53:30.138Z,78.78
2022-11-10T07:55:58.120Z,69.53
2022-11-10T07:58:24.747Z,65.03
2022-11-10T08:00:51.473Z,65.85
2022-11-10T08:03:20.171Z,71.55
2022-11-10T08:05:47.458Z,62.30
2022-11-10T08:08:14.379Z,51.15
2022-11-10T08:10:41.538Z,60.75
2022-11-10T08:13:10.429Z,76.10
2022-11-10T08:15:37.282Z,62.50
2022-11-10T08:18:06.492Z,42.78
2022-11-10T08:20:33.668Z,18.40
2022-11-10T08:23:02.756Z,15.15
2022-11-10T08:25:34.804Z,10.55
2022-11-10T08:28:08.168Z,8.95
2022-11-10T08:30:36.599Z,6.50
2022-11-10T08:33:05.045Z,6.18
2022-11-10T08:35:35.903Z,7.72
2022-11-10T08:38:10.081Z,6.75
2022-11-10T08:40:37.867Z,9.20
2022-11-10T08:43:07.611Z,10.23
2022-11-10T08:45:38.042Z,10.02
2022-11-10T08:48:07.443Z,8.55
2022-11-10T08:50:34.287Z,8.73
2022-11-10T08:53:02.586Z,7.80
2022-11-10T08:55:29.613Z,7.05
2022-11-10T08:58:01.049Z,9.02
2022-11-10T09:00:30.927Z,9.00
2022-11-10T09:03:03.414Z,9.07
2022-11-10T09:05:30.139Z,8.80
2022-11-10T09:07:56.766Z,7.93
2022-11-10T09:10:23.477Z,12.20
2022-11-10T09:12:50.199Z,8.43
2022-11-10T09:15:16.900Z,7.28
2022-11-10T09:17:43.639Z,7.70
2022-11-10T09:20:12.214Z,10.45
2022-11-10T09:22:39.041Z,7.53
2022-11-10T09:25:05.857Z,8.02
2022-11-10T09:27:36.182Z,7.03
2022-11-10T09:30:04.214Z,8.98
2022-11-10T09:32:32.282Z,6.25
2022-11-10T09:34:59.721Z,7.63
2022-11-10T09:37:26.650Z,8.93
2022-11-10T09:39:53.348Z,8.25
2022-11-10T09:42:37.724Z,7.13
2022-11-10T09:45:25.384Z,8.05
2022-11-10T09:48:00.026Z,7.03
2022-11-10T09:50:38.874Z,8.02
2022-11-10T09:53:06.637Z,7.68
2022-11-10T09:55:53.981Z,8.30
2022-11-10T09:58:24.311Z,9.07
2022-11-10T10:01:18.375Z,8.13
2022-11-10T10:03:49.558Z,7.30
2022-11-10T10:06:16.849Z,8.02
2022-11-10T10:09:01.848Z,6.10
2022-11-10T10:12:00.460Z,6.97
2022-11-10T10:14:32.952Z,8.00
2022-11-10T10:17:26.795Z,6.30
2022-11-10T10:20:11.762Z,6.05
2022-11-10T10:22:50.617Z,6.93
2022-11-10T10:25:22.074Z,8.10
2022-11-10T10:27:52.432Z,6.95
2022-11-10T10:30:20.786Z,9.43
2022-11-10T10:32:47.476Z,7.55
2022-11-10T10:35:18.438Z,7.65
2022-11-10T10:37:50.624Z,8.98
2022-11-10T10:40:20.236Z,7.80
2022-11-10T10:42:47.145Z,8.65
2022-11-10T10:45:21.990Z,8.90
2022-11-10T10:47:51.539Z,7.63
2022-11-10T10:50:27.122Z,9.88
2022-11-10T10:53:15.906Z,6.65
2022-11-10T10:55:48.874Z,7.18
2022-11-10T10:58:22.682Z,7.10
2022-11-10T11:00:52.873Z,7.20
2022-11-10T11:03:26.486Z,7.85
2022-11-10T11:06:15.123Z,7.28
2022-11-10T11:09:08.824Z,6.97
2022-11-10T11:11:38.349Z,7.57
2022-11-10T11:14:31.633Z,7.10
2022-11-10T11:17:04.361Z,10.18
2022-11-10T11:19:33.781Z,8.35
2022-11-10T11:22:39.342Z,6.32
2022-11-10T11:25:28.993Z,7.25
2022-11-10T11:28:16.544Z,9.23
2022-11-10T11:31:06.432Z,11.13
2022-11-10T11:33:40.208Z,10.50
2022-11-10T11:36:13.075Z,9.40
2022-11-10T11:38:53.421Z,7.78
2022-11-10T11:41:20.000Z,7.35
2022-11-10T11:43:54.991Z,8.60
2022-11-10T11:46:48.995Z,9.13
2022-11-10T11:49:28.152Z,6.57
2022-11-10T11:52:28.788Z,8.80
2022-11-10T11:55:07.770Z,9.10
2022-11-10T11:58:06.097Z,9.40
2022-11-10T12:01:14.599Z,15.05
2022-11-10T12:04:09.205Z,6.80
2022-11-10T12:07:00.608Z,7.18
2022-11-10T12:09:46.137Z,8.27
2022-11-10T12:12:31.381Z,5.80
2022-11-10T12:15:08.973Z,11.75
2022-11-10T12:17:38.592Z,7.97
2022-11-10T12:20:26.360Z,10.93
2022-11-10T12:23:20.733Z,7.25
2022-11-10T12:25:53.421Z,7.28
2022-11-10T12:28:26.371Z,6.65
2022-11-10T12:31:00.535Z,7.85
2022-11-10T12:36:03.696Z,6.57
2022-11-10T12:38:36.162Z,7.13
2022-11-10T12:41:08.218Z,6.78
2022-11-10T12:43:58.505Z,7.20
2022-11-10T12:46:25.137Z,10.52
2022-11-10T12:49:12.718Z,6.72
2022-11-10T12:51:53.036Z,8.63
2022-11-10T12:54:21.615Z,10.00
2022-11-10T12:56:48.184Z,6.65
2022-11-10T12:59:20.999Z,7.80
2022-11-10T13:01:58.677Z,10.63
2022-11-10T13:04:25.332Z,8.90
2022-11-10T13:07:06.463Z,7.35
2022-11-10T13:09:38.204Z,6.93
2022-11-10T13:12:10.707Z,7.07
2022-11-10T13:14:38.639Z,10.00
2022-11-10T13:17:05.910Z,8.82
2022-11-10T13:19:39.174Z,6.72
2022-11-10T13:22:10.273Z,8.10
2022-11-10T13:24:38.931Z,7.80
2022-11-10T13:27:11.839Z,7.20
2022-11-10T13:29:47.807Z,9.98
2022-11-10T13:32:14.428Z,9.43
2022-11-10T13:34:47.742Z,7.22
2022-11-10T13:37:29.736Z,8.88
2022-11-10T13:40:24.537Z,8.38
2022-11-10T13:43:14.554Z,7.65
2022-11-10T13:45:42.950Z,7.55
2022-11-10T13:48:12.292Z,9.15
2022-11-10T13:50:41.813Z,8.13
2022-11-10T13:53:23.377Z,10.60
2022-11-10T13:56:18.763Z,10.60
2022-11-10T13:58:45.930Z,9.90
2022-11-10T14:01:15.591Z,8.68
2022-11-10T14:03:45.358Z,8.20
2022-11-10T14:06:38.742Z,11.43
2022-11-10T14:09:30.345Z,10.15
2022-11-10T14:12:00.235Z,10.18
2022-11-10T14:14:43.668Z,13.80
2022-11-10T14:17:19.303Z,10.55
2022-11-10T14:19:46.478Z,7.97
2022-11-10T14:22:21.941Z,8.23
2022-11-10T14:25:12.883Z,12.10
2022-11-10T14:27:40.286Z,7.20
2022-11-10T14:30:27.917Z,16.17
2022-11-10T14:33:14.464Z,11.65
2022-11-10T14:36:11.566Z,10.70
2022-11-10T14:38:43.843Z,8.38
2022-11-10T14:41:18.060Z,8.93
2022-11-10T14:43:44.790Z,7.93
2022-11-10T14:46:14.230Z,9.55
2022-11-10T14:48:41.190Z,10.57
2022-11-10T14:51:13.304Z,12.65
2022-11-10T14:53:45.879Z,11.68
2022-11-10T14:56:23.119Z,9.45
2022-11-10T14:58:50.103Z,10.30
2022-11-10T15:01:26.059Z,13.05
2022-11-10T15:03:53.442Z,12.00
2022-11-10T15:06:20.599Z,8.32
2022-11-10T15:08:47.319Z,12.43
2022-11-10T15:11:53.048Z,11.48
2022-11-10T15:14:35.418Z,12.10
2022-11-10T15:17:45.552Z,9.55
2022-11-10T15:20:55.774Z,9.00
2022-11-10T15:23:32.070Z,16.08
2022-11-10T15:26:00.082Z,11.95
2022-11-10T15:28:30.183Z,11.32
2022-11-10T15:31:09.497Z,14.25
2022-11-10T15:33:37.454Z,10.05
2022-11-10T15:36:39.739Z,10.20
2022-11-10T15:39:06.568Z,10.48
2022-11-10T15:41:34.651Z,12.85
2022-11-10T15:44:22.163Z,16.70
2022-11-10T15:46:52.504Z,16.83
2022-11-10T15:49:34.875Z,34.00
2022-11-10T15:52:11.622Z,30.17
2022-11-10T15:54:38.644Z,33.58
2022-11-10T15:57:11.346Z,29.45
2022-11-10T15:59:37.984Z,42.45
2022-11-10T16:02:17.453Z,32.58
2022-11-10T16:04:44.064Z,55.03
2022-11-10T16:07:10.847Z,39.55
2022-11-10T16:09:37.562Z,35.72
2022-11-10T16:12:04.427Z,40.70
2022-11-10T16:14:31.046Z,36.22
2022-11-10T16:16:57.719Z,24.58
2022-11-10T16:19:24.358Z,29.02
2022-11-10T16:21:50.987Z,53.55
2022-11-10T16:24:17.701Z,32.13
2022-11-10T16:26:44.399Z,39.50
2022-11-10T16:29:20.112Z,27.67
2022-11-10T16:31:50.600Z,26.92
2022-11-10T16:34:17.274Z,21.25
2022-11-10T16:36:46.282Z,40.22
2022-11-10T16:39:15.578Z,30.73
2022-11-10T16:41:42.213Z,36.05
2022-11-10T16:44:12.202Z,26.10
2022-11-10T16:46:40.290Z,35.63
2022-11-10T16:49:18.190Z,27.33
2022-11-10T16:51:48.812Z,30.48
2022-11-10T16:54:16.250Z,29.25
2022-11-10T16:56:42.981Z,31.58
2022-11-10T16:59:10.672Z,21.77
2022-11-10T17:01:37.920Z,26.02
2022-11-10T17:04:09.797Z,23.08
2022-11-10T17:06:36.747Z,30.15
2022-11-10T17:09:18.031Z,37.45
2022-11-10T17:11:44.968Z,30.98
2022-11-10T17:14:30.798Z,39.33
2022-11-10T17:16:57.448Z,27.70
2022-11-10T17:19:26.447Z,34.83
2022-11-10T17:21:54.096Z,27.30
2022-11-10T17:24:21.728Z,21.80
2022-11-10T17:26:48.464Z,24.63
2022-11-10T17:29:21.124Z,23.20
2022-11-10T17:31:50.268Z,24.60
2022-11-10T17:36:43.606Z,29.42
2022-11-10T17:39:14.034Z,25.13
2022-11-10T17:41:40.818Z,26.27
2022-11-10T17:44:13.168Z,30.25
2022-11-10T17:46:40.043Z,31.65
2022-11-10T17:49:06.650Z,31.05
2022-11-10T17:51:34.146Z,31.98
2022-11-10T17:54:04.511Z,34.22
2022-11-10T17:56:31.992Z,36.30
2022-11-10T17:58:58.737Z,35.13
2022-11-10T18:01:25.532Z,26.85
2022-11-10T18:03:52.201Z,35.65
2022-11-10T18:06:20.515Z,35.63
2022-11-10T18:08:47.530Z,44.05
2022-11-10T18:11:17.512Z,28.13
2022-11-10T18:13:44.705Z,36.05
2022-11-10T18:16:12.957Z,43.60
2022-11-10T18:18:39.962Z,29.88
2022-11-10T18:21:07.251Z,31.27
2022-11-10T18:23:33.998Z,33.78
2022-11-10T18:26:05.565Z,31.08
2022-11-10T18:28:32.809Z,36.35
2022-11-10T18:31:06.287Z,35.70
2022-11-10T18:33:32.887Z,32.97
2022-11-10T18:36:00.369Z,36.70
2022-11-10T18:38:28.521Z,46.22
2022-11-10T18:40:55.317Z,47.80
2022-11-10T18:43:22.188Z,43.85
2022-11-10T18:45:53.330Z,37.00
2022-11-10T18:48:22.234Z,47.00
2022-11-10T18:50:52.299Z,47.65
2022-11-10T18:53:18.944Z,40.58
2022-11-10T18:55:54.779Z,37.20
2022-11-10T18:58:21.470Z,34.55
2022-11-10T19:00:48.159Z,47.40
2022-11-10T19:03:14.812Z,46.95
2022-11-10T19:05:42.741Z,54.35
2022-11-10T19:08:09.417Z,74.95
2022-11-10T19:10:41.952Z,83.10
2022-11-10T19:13:08.595Z,92.57
2022-11-10T19:15:40.836Z,83.90
2022-11-10T19:18:07.442Z,77.97
2022-11-10T19:20:37.510Z,71.80
2022-11-10T19:23:04.218Z,57.45
2022-11-10T19:25:31.326Z,53.72
2022-11-10T19:27:58.504Z,55.80
2022-11-10T19:30:25.799Z,59.67
2022-11-10T19:32:52.428Z,63.95
2022-11-10T19:35:19.059Z,59.25
2022-11-10T19:37:45.667Z,68.90
2022-11-10T19:40:12.844Z,59.78
2022-11-10T19:42:39.502Z,58.55
2022-11-10T19:45:06.607Z,58.38
2022-11-10T19:47:33.276Z,58.72
2022-11-10T19:49:59.896Z,58.83
2022-11-10T19:52:26.657Z,61.95
2022-11-10T19:54:53.374Z,60.85
2022-11-10T19:57:20.003Z,59.00
2022-11-10T19:59:46.675Z,65.40
2022-11-10T20:02:13.595Z,54.35
2022-11-10T20:05:00.495Z,55.45
2022-11-10T20:07:45.647Z,46.45
2022-11-10T20:10:12.651Z,48.10
2022-11-10T20:12:39.299Z,46.05
2022-11-10T20:15:06.814Z,54.38
2022-11-10T20:17:33.466Z,45.08
2022-11-10T20:20:00.159Z,59.72
2022-11-10T20:22:26.795Z,48.15
2022-11-10T20:24:53.484Z,47.10
2022-11-10T20:27:20.173Z,45.90
2022-11-10T20:29:46.831Z,48.08
2022-11-10T20:32:13.503Z,46.80
2022-11-10T20:34:40.198Z,42.88
2022-11-10T20:37:06.835Z,54.75
2022-11-10T20:39:33.545Z,41.13
2022-11-10T20:42:00.162Z,50.20
2022-11-10T20:44:26.805Z,48.30
2022-11-10T20:46:55.091Z,45.88
2022-11-10T20:49:22.202Z,49.10
2022-11-10T20:51:48.949Z,36.28
2022-11-10T20:54:17.398Z,36.45
2022-11-10T20:56:44.173Z,34.70
2022-11-10T20:59:11.230Z,31.45
2022-11-10T21:01:38.078Z,27.75
2022-11-10T21:04:06.182Z,29.00
2022-11-10T21:06:32.979Z,12.77
2022-11-10T21:08:59.825Z,19.05
2022-11-10T21:11:44.944Z,11.30
2022-11-10T21:14:11.627Z,23.45
2022-11-10T21:16:38.367Z,21.13
2022-11-10T21:19:05.160Z,15.82
2022-11-10T21:21:35.004Z,17.20
2022-11-10T21:24:02.765Z,22.67
2022-11-10T21:26:30.660Z,15.68
2022-11-10T21:28:58.183Z,14.60
2022-11-10T21:31:24.906Z,17.80
2022-11-10T21:33:54.910Z,18.30
2022-11-10T21:36:21.731Z,20.13
2022-11-10T21:38:48.593Z,15.32
2022-11-10T21:41:16.108Z,13.63
2022-11-10T21:43:42.780Z,25.05
2022-11-10T21:46:09.407Z,28.10
2022-11-10T21:48:36.159Z,28.63
2022-11-10T21:51:04.611Z,25.48
2022-11-10T21:53:31.963Z,28.65
2022-11-10T21:56:00.076Z,29.63
2022-11-10T21:58:27.230Z,27.65
2022-11-10T22:01:26.672Z,29.83
2022-11-10T22:03:53.381Z,39.47
2022-11-10T22:06:20.180Z,41.58
2022-11-10T22:08:47.804Z,49.80
2022-11-10T22:11:33.781Z,47.33
2022-11-10T22:14:19.013Z,45.90
2022-11-10T22:17:08.613Z,47.90
2022-11-10T22:19:36.476Z,51.05
2022-11-10T22:22:04.337Z,45.95
2022-11-10T22:24:31.701Z,45.60
2022-11-10T22:27:03.318Z,37.83
2022-11-10T22:29:32.447Z,40.63
2022-11-10T22:32:00.512Z,35.10
2022-11-10T22:34:27.178Z,32.33
2022-11-10T22:36:57.148Z,30.65
2022-11-10T22:39:43.838Z,29.50
2022-11-10T22:42:32.298Z,28.45
2022-11-10T22:44:58.973Z,31.10
2022-11-10T22:47:25.702Z,32.58
2022-11-10T22:49:52.340Z,26.85
2022-11-10T22:52:18.946Z,26.90
2022-11-10T22:54:45.586Z,31.30
2022-11-10T22:57:12.249Z,33.50
2022-11-10T22:59:38.931Z,25.50
2022-11-10T23:02:05.567Z,35.78
2022-11-10T23:04:32.225Z,24.92
2022-11-10T23:06:58.883Z,29.73
2022-11-10T23:09:25.548Z,31.90
2022-11-10T23:11:52.170Z,28.38
2022-11-10T23:14:18.980Z,26.08
2022-11-10T23:16:45.591Z,28.73
2022-11-10T23:19:12.319Z,25.67
2022-11-10T23:21:38.926Z,27.70
2022-11-10T23:24:06.023Z,36.25
2022-11-10T23:29:18.757Z,35.75
2022-11-10T23:31:45.404Z,29.77
2022-11-10T23:34:12.058Z,28.02
2022-11-10T23:36:38.676Z,30.23
2022-11-10T23:39:05.294Z,34.28
2022-11-10T23:41:31.913Z,39.10
2022-11-10T23:43:58.621Z,30.50
2022-11-10T23:46:25.268Z,36.88
2022-11-10T23:48:51.990Z,32.83
2022-11-10T23:51:18.624Z,31.92
2022-11-10T23:53:45.270Z,29.33
2022-11-10T23:56:13.447Z,29.45
